createdAt,value
2023-01-18T00:00:47.399Z,6.33
2023-01-18T00:03:14.351Z,4.90
2023-01-18T00:05:42.215Z,5.60
2023-01-18T00:08:13.927Z,6.80
2023-01-18T00:10:40.758Z,4.30
2023-01-18T00:13:07.540Z,7.40
2023-01-18T00:15:35.218Z,7.33
2023-01-18T00:18:02.319Z,4.60
2023-01-18T00:20:30.030Z,6.80
2023-01-18T00:22:58.979Z,6.30
2023-01-18T00:25:25.889Z,5.77
2023-01-18T00:27:54.194Z,4.50
2023-01-18T00:30:24.063Z,7.00
2023-01-18T00:32:58.490Z,6.27
2023-01-18T00:35:26.040Z,5.67
2023-01-18T00:37:53.866Z,5.57
2023-01-18T00:40:22.701Z,5.23
2023-01-18T00:43:08.129Z,5.23
2023-01-18T00:45:37.016Z,5.33
2023-01-18T00:48:03.808Z,6.90
2023-01-18T00:50:30.459Z,4.80
2023-01-18T00:52:58.727Z,7.27
2023-01-18T00:55:26.314Z,4.33
2023-01-18T00:57:52.998Z,5.07
2023-01-18T01:00:20.377Z,5.47
2023-01-18T01:02:47.110Z,6.00
2023-01-18T01:05:37.722Z,5.17
2023-01-18T01:08:05.799Z,6.70
2023-01-18T01:10:33.912Z,4.87
2023-01-18T01:13:19.390Z,7.37
2023-01-18T01:16:04.756Z,6.90
2023-01-18T01:18:50.263Z,4.20
2023-01-18T01:21:35.709Z,7.30
2023-01-18T01:24:21.090Z,6.73
2023-01-18T01:26:47.696Z,6.80
2023-01-18T01:29:14.453Z,4.77
2023-01-18T01:31:41.134Z,7.07
2023-01-18T01:34:07.881Z,4.83
2023-01-18T01:36:34.600Z,6.20
2023-01-18T01:39:01.307Z,5.67
2023-01-18T01:41:33.881Z,5.47
2023-01-18T01:44:06.335Z,5.40
2023-01-18T01:46:55.682Z,5.90
2023-01-18T01:49:36.675Z,5.63
2023-01-18T01:52:08.875Z,6.87
2023-01-18T01:54:37.890Z,5.93
2023-01-18T01:57:13.652Z,6.27
2023-01-18T01:59:45.442Z,7.13
2023-01-18T02:02:12.741Z,7.20
2023-01-18T02:04:44.125Z,6.70
2023-01-18T02:07:12.288Z,6.10
2023-01-18T02:09:39.409Z,6.43
2023-01-18T02:12:06.216Z,5.33
2023-01-18T02:14:33.060Z,5.77
2023-01-18T02:17:17.119Z,7.33
2023-01-18T02:20:25.323Z,7.13
2023-01-18T02:23:24.357Z,5.70
2023-01-18T02:26:28.129Z,6.57
2023-01-18T02:29:12.816Z,5.10
2023-01-18T02:31:49.134Z,6.10
2023-01-18T02:34:30.963Z,7.23
2023-01-18T02:37:25.039Z,5.07
2023-01-18T02:39:55.557Z,8.23
2023-01-18T02:42:44.175Z,5.53
2023-01-18T02:45:54.106Z,5.83
2023-01-18T02:48:23.493Z,6.97
2023-01-18T02:50:51.108Z,7.07
2023-01-18T02:53:17.759Z,7.17
2023-01-18T02:55:55.463Z,6.33
2023-01-18T02:58:37.801Z,7.10
2023-01-18T03:01:27.384Z,7.47
2023-01-18T03:04:03.459Z,9.20
2023-01-18T03:06:30.600Z,7.17
2023-01-18T03:08:59.688Z,5.10
2023-01-18T03:11:45.893Z,7.50
2023-01-18T03:14:39.679Z,5.97
2023-01-18T03:17:20.153Z,6.33
2023-01-18T03:20:07.613Z,6.17
2023-01-18T03:23:15.160Z,6.17
2023-01-18T03:25:50.964Z,8.07
2023-01-18T03:28:55.787Z,6.97
2023-01-18T03:31:57.081Z,5.93
2023-01-18T03:34:46.773Z,8.03
2023-01-18T03:37:25.009Z,8.27
2023-01-18T03:39:57.719Z,7.00
2023-01-18T03:42:35.657Z,5.70
2023-01-18T03:45:12.956Z,6.07
2023-01-18T03:47:40.067Z,6.40
2023-01-18T03:50:07.279Z,7.77
2023-01-18T03:52:46.667Z,7.17
2023-01-18T03:55:39.020Z,7.70
2023-01-18T03:58:11.755Z,8.33
2023-01-18T04:00:39.619Z,10.00
2023-01-18T04:03:06.487Z,7.40
2023-01-18T04:05:34.258Z,6.83
2023-01-18T04:08:00.906Z,7.60
2023-01-18T04:10:27.552Z,5.83
2023-01-18T04:12:54.151Z,5.83
2023-01-18T04:15:20.893Z,7.47
2023-01-18T04:17:52.967Z,9.30
2023-01-18T04:20:19.637Z,8.73
2023-01-18T04:22:54.489Z,7.57
2023-01-18T04:25:21.749Z,5.67
2023-01-18T04:27:48.482Z,6.20
2023-01-18T04:30:15.488Z,7.17
2023-01-18T04:32:42.824Z,6.30
2023-01-18T04:35:10.061Z,6.87
2023-01-18T04:37:38.275Z,7.30
2023-01-18T04:40:06.419Z,6.87
2023-01-18T04:42:33.260Z,6.03
2023-01-18T04:45:00.014Z,8.97
2023-01-18T04:47:29.031Z,7.37
2023-01-18T04:49:59.441Z,7.93
2023-01-18T04:52:26.740Z,8.03
2023-01-18T04:54:53.605Z,8.50
2023-01-18T04:57:20.290Z,7.97
2023-01-18T04:59:46.896Z,9.53
2023-01-18T05:02:15.087Z,10.60
2023-01-18T05:04:41.991Z,7.30
2023-01-18T05:07:08.768Z,10.87
2023-01-18T05:09:35.444Z,7.70
2023-01-18T05:12:02.089Z,9.77
2023-01-18T05:14:28.701Z,8.70
2023-01-18T05:16:55.304Z,9.93
2023-01-18T05:19:21.912Z,10.07
2023-01-18T05:21:48.578Z,10.73
2023-01-18T05:24:15.214Z,7.33
2023-01-18T05:26:41.815Z,8.67
2023-01-18T05:29:08.430Z,11.00
2023-01-18T05:31:35.085Z,9.60
2023-01-18T05:34:02.119Z,7.37
2023-01-18T05:36:28.785Z,8.67
2023-01-18T05:38:55.704Z,9.87
2023-01-18T05:41:22.618Z,8.73
2023-01-18T05:43:49.248Z,11.63
2023-01-18T05:46:15.983Z,12.00
2023-01-18T05:48:42.639Z,11.60
2023-01-18T05:51:11.152Z,10.17
2023-01-18T05:53:38.111Z,8.87
2023-01-18T05:56:06.364Z,8.87
2023-01-18T05:58:33.325Z,13.10
2023-01-18T06:01:00.035Z,10.40
2023-01-18T06:03:26.701Z,10.63
2023-01-18T06:05:53.436Z,11.40
2023-01-18T06:08:20.497Z,11.17
2023-01-18T06:10:57.994Z,10.60
2023-01-18T06:13:27.954Z,14.97
2023-01-18T06:15:55.177Z,13.50
2023-01-18T06:18:22.511Z,13.20
2023-01-18T06:20:49.637Z,16.13
2023-01-18T06:23:16.236Z,16.97
2023-01-18T06:25:43.334Z,14.00
2023-01-18T06:28:10.131Z,12.30
2023-01-18T06:30:36.750Z,14.43
2023-01-18T06:33:06.740Z,12.53
2023-01-18T06:35:37.187Z,15.13
2023-01-18T06:38:04.998Z,13.00
2023-01-18T06:40:31.863Z,13.40
2023-01-18T06:42:58.958Z,12.20
2023-01-18T06:45:26.398Z,11.60
2023-01-18T06:47:53.449Z,13.77
2023-01-18T06:50:20.270Z,18.87
2023-01-18T06:52:47.141Z,10.97
2023-01-18T06:55:14.983Z,15.10
2023-01-18T06:57:41.924Z,16.90
2023-01-18T07:00:10.689Z,20.10
2023-01-18T07:02:37.393Z,21.17
2023-01-18T07:05:04.933Z,18.67
2023-01-18T07:07:31.874Z,23.40
2023-01-18T07:09:58.508Z,31.40
2023-01-18T07:12:25.465Z,27.00
2023-01-18T07:14:52.223Z,23.43
2023-01-18T07:17:19.025Z,27.27
2023-01-18T07:19:45.718Z,28.23
2023-01-18T07:22:13.412Z,22.60
2023-01-18T07:24:40.079Z,25.37
2023-01-18T07:27:07.026Z,22.13
2023-01-18T07:29:33.704Z,20.00
2023-01-18T07:32:01.092Z,24.63
2023-01-18T07:34:27.836Z,25.10
2023-01-18T07:36:54.986Z,24.77
2023-01-18T07:39:21.653Z,32.23
2023-01-18T07:41:48.369Z,34.43
2023-01-18T07:44:15.202Z,30.03
2023-01-18T07:46:43.142Z,30.27
2023-01-18T07:49:09.892Z,32.27
2023-01-18T07:51:36.576Z,30.13
2023-01-18T07:54:03.269Z,27.60
2023-01-18T07:56:29.850Z,34.53
2023-01-18T07:58:56.565Z,30.37
2023-01-18T08:01:24.093Z,28.93
2023-01-18T08:03:51.276Z,32.97
2023-01-18T08:06:26.423Z,32.27
2023-01-18T08:08:55.827Z,32.80
2023-01-18T08:11:22.768Z,32.63
2023-01-18T08:13:50.486Z,29.53
2023-01-18T08:16:17.717Z,34.27
2023-01-18T08:18:48.086Z,27.13
2023-01-18T08:21:14.946Z,27.43
2023-01-18T08:23:42.073Z,26.23
2023-01-18T08:26:10.458Z,30.80
2023-01-18T08:28:37.168Z,31.03
2023-01-18T08:31:14.268Z,29.67
2023-01-18T08:33:46.905Z,34.57
2023-01-18T08:36:18.987Z,28.87
2023-01-18T08:38:51.294Z,29.40
2023-01-18T08:41:19.003Z,29.90
2023-01-18T08:43:50.489Z,24.50
2023-01-18T08:46:17.408Z,25.23
2023-01-18T08:48:44.068Z,25.80
2023-01-18T08:51:11.350Z,26.13
2023-01-18T08:53:38.050Z,24.30
2023-01-18T08:56:07.954Z,27.47
2023-01-18T08:58:34.618Z,29.50
2023-01-18T09:01:08.824Z,26.50
2023-01-18T09:03:36.605Z,21.83
2023-01-18T09:06:08.016Z,27.97
2023-01-18T09:08:34.954Z,25.83
2023-01-18T09:11:07.161Z,29.57
2023-01-18T09:13:34.724Z,23.63
2023-01-18T09:16:03.442Z,22.13
2023-01-18T09:18:30.319Z,19.77
2023-01-18T09:21:04.740Z,20.13
2023-01-18T09:23:31.334Z,26.87
2023-01-18T09:26:07.048Z,20.23
2023-01-18T09:28:33.984Z,19.60
2023-01-18T09:31:05.706Z,18.23
2023-01-18T09:33:37.965Z,16.77
2023-01-18T09:36:09.693Z,17.33
2023-01-18T09:38:37.880Z,16.20
2023-01-18T09:41:23.353Z,17.60
2023-01-18T09:43:54.533Z,15.77
2023-01-18T09:46:23.020Z,13.03
2023-01-18T09:48:57.067Z,15.43
2023-01-18T09:51:30.309Z,13.23
2023-01-18T09:54:24.737Z,12.03
2023-01-18T09:56:56.918Z,11.07
2023-01-18T09:59:30.462Z,11.57
2023-01-18T10:01:57.610Z,12.83
2023-01-18T10:04:36.170Z,11.93
2023-01-18T10:07:07.685Z,12.70
2023-01-18T10:09:43.510Z,12.30
2023-01-18T10:12:23.567Z,12.97
2023-01-18T10:15:28.184Z,10.87
2023-01-18T10:17:57.609Z,13.30
2023-01-18T10:20:50.373Z,10.57
2023-01-18T10:23:31.353Z,11.87
2023-01-18T10:26:11.356Z,10.97
2023-01-18T10:29:19.111Z,10.77
2023-01-18T10:31:55.622Z,10.73
2023-01-18T10:34:27.347Z,15.17
2023-01-18T10:36:58.667Z,8.20
2023-01-18T10:39:32.610Z,10.80
2023-01-18T10:42:04.029Z,9.17
2023-01-18T10:44:31.970Z,10.23
2023-01-18T10:47:01.303Z,9.83
2023-01-18T10:49:37.567Z,10.50
2023-01-18T10:52:31.415Z,9.80
2023-01-18T10:55:03.381Z,11.87
2023-01-18T10:57:52.128Z,8.47
2023-01-18T11:00:21.545Z,10.90
2023-01-18T11:02:51.060Z,8.67
2023-01-18T11:05:20.794Z,8.93
2023-01-18T11:07:47.925Z,9.57
2023-01-18T11:10:28.020Z,9.90
2023-01-18T11:12:54.839Z,8.93
2023-01-18T11:15:27.854Z,8.97
2023-01-18T11:17:58.008Z,10.50
2023-01-18T11:20:49.981Z,8.53
2023-01-18T11:23:18.557Z,6.77
2023-01-18T11:26:07.967Z,9.27
2023-01-18T11:29:04.648Z,9.57
2023-01-18T11:31:45.587Z,8.83
2023-01-18T11:34:28.083Z,6.40
2023-01-18T11:36:55.766Z,5.90
2023-01-18T11:39:33.078Z,7.87
2023-01-18T11:42:11.675Z,6.67
2023-01-18T11:44:51.875Z,6.80
2023-01-18T11:47:37.637Z,5.20
2023-01-18T11:50:33.729Z,5.30
2023-01-18T11:53:32.503Z,5.93
2023-01-18T11:56:08.964Z,5.13
2023-01-18T11:58:36.453Z,7.77
2023-01-18T12:01:27.576Z,7.37
2023-01-18T12:04:33.076Z,7.53
2023-01-18T12:07:24.425Z,8.07
2023-01-18T12:10:00.286Z,6.87
2023-01-18T12:12:34.746Z,7.20
2023-01-18T12:15:48.505Z,9.17
2023-01-18T12:18:21.773Z,9.13
2023-01-18T12:21:10.043Z,9.40
2023-01-18T12:23:58.541Z,8.90
2023-01-18T12:26:47.859Z,8.87
2023-01-18T12:29:36.947Z,8.80
2023-01-18T12:32:21.361Z,8.90
2023-01-18T12:35:00.357Z,9.60
2023-01-18T12:37:35.670Z,9.77
2023-01-18T12:40:24.433Z,16.73
2023-01-18T12:42:53.907Z,9.20
2023-01-18T12:45:44.645Z,10.93
2023-01-18T12:48:30.216Z,10.63
2023-01-18T12:51:00.317Z,9.53
2023-01-18T12:53:38.168Z,11.47
2023-01-18T12:56:19.995Z,9.57
2023-01-18T12:58:54.984Z,11.50
2023-01-18T13:01:24.925Z,9.80
2023-01-18T13:03:57.515Z,10.07
2023-01-18T13:06:25.896Z,9.90
2023-01-18T13:09:07.204Z,8.57
2023-01-18T13:11:37.270Z,9.20
2023-01-18T13:14:05.827Z,11.63
2023-01-18T13:17:10.708Z,9.20
2023-01-18T13:19:54.482Z,10.17
2023-01-18T13:22:37.464Z,9.13
2023-01-18T13:25:24.161Z,10.27
2023-01-18T13:28:02.469Z,9.70
2023-01-18T13:30:33.479Z,11.63
2023-01-18T13:33:00.665Z,11.00
2023-01-18T13:35:33.485Z,8.83
2023-01-18T13:38:09.965Z,11.03
2023-01-18T13:40:52.729Z,9.27
2023-01-18T13:43:37.447Z,10.17
2023-01-18T13:46:20.440Z,11.33
2023-01-18T13:48:50.784Z,10.77
2023-01-18T13:51:39.399Z,9.53
2023-01-18T13:54:07.702Z,11.17
2023-01-18T13:56:36.708Z,10.67
2023-01-18T13:59:23.219Z,10.10
2023-01-18T14:01:50.574Z,9.10
2023-01-18T14:04:32.970Z,10.90
2023-01-18T14:07:02.905Z,9.13
2023-01-18T14:09:42.437Z,9.67
2023-01-18T14:12:12.997Z,10.30
2023-01-18T14:14:58.764Z,8.33
2023-01-18T14:17:26.612Z,8.30
2023-01-18T14:19:57.360Z,8.30
2023-01-18T14:23:05.557Z,9.00
2023-01-18T14:25:56.573Z,6.70
2023-01-18T14:28:37.727Z,8.20
2023-01-18T14:31:07.509Z,8.27
2023-01-18T14:33:38.159Z,7.23
2023-01-18T14:36:06.621Z,6.13
2023-01-18T14:38:33.308Z,8.80
2023-01-18T14:41:05.661Z,8.10
2023-01-18T14:43:41.617Z,6.63
2023-01-18T14:46:21.026Z,6.37
2023-01-18T14:48:53.346Z,9.10
2023-01-18T14:51:28.427Z,9.93
2023-01-18T14:53:57.840Z,7.33
2023-01-18T14:56:30.219Z,8.40
2023-01-18T14:58:59.671Z,8.37
2023-01-18T15:01:34.303Z,10.03
2023-01-18T15:04:04.171Z,9.80
2023-01-18T15:06:48.694Z,7.37
2023-01-18T15:09:18.106Z,13.73
2023-01-18T15:11:45.669Z,8.87
2023-01-18T15:14:18.345Z,7.90
2023-01-18T15:16:48.531Z,9.87
2023-01-18T15:19:22.436Z,9.90
2023-01-18T15:21:49.541Z,8.13
2023-01-18T15:24:22.996Z,11.03
2023-01-18T15:27:00.800Z,9.23
2023-01-18T15:29:38.806Z,7.43
2023-01-18T15:32:14.797Z,11.17
2023-01-18T15:34:45.093Z,9.63
2023-01-18T15:37:24.296Z,10.57
2023-01-18T15:39:58.128Z,8.67
2023-01-18T15:42:38.586Z,11.73
2023-01-18T15:45:16.677Z,8.00
2023-01-18T15:47:50.099Z,10.07
2023-01-18T15:50:21.889Z,10.07
2023-01-18T15:53:06.853Z,10.87
2023-01-18T15:55:40.740Z,10.70
2023-01-18T15:58:11.139Z,11.70
2023-01-18T16:00:53.285Z,11.47
2023-01-18T16:03:23.234Z,10.90
2023-01-18T16:06:08.497Z,8.40
2023-01-18T16:08:35.378Z,12.83
2023-01-18T16:11:02.127Z,11.27
2023-01-18T16:13:40.162Z,14.23
2023-01-18T16:16:10.464Z,13.43
2023-01-18T16:18:37.134Z,12.50
2023-01-18T16:21:12.276Z,13.73
2023-01-18T16:23:44.123Z,11.83
2023-01-18T16:26:13.335Z,10.93
2023-01-18T16:28:40.184Z,12.03
2023-01-18T16:31:07.912Z,19.73
2023-01-18T16:33:34.683Z,15.23
2023-01-18T16:36:14.835Z,11.87
2023-01-18T16:38:41.543Z,13.60
2023-01-18T16:41:08.718Z,11.67
2023-01-18T16:43:36.686Z,18.40
2023-01-18T16:46:04.390Z,17.63
2023-01-18T16:48:33.595Z,16.67
2023-01-18T16:51:01.394Z,10.93
2023-01-18T16:53:28.876Z,12.00
2023-01-18T16:55:56.568Z,9.53
2023-01-18T16:58:24.004Z,12.73
2023-01-18T17:01:10.628Z,13.33
2023-01-18T17:03:37.385Z,14.63
2023-01-18T17:06:04.279Z,11.00
2023-01-18T17:08:30.970Z,9.87
2023-01-18T17:10:57.763Z,9.70
2023-01-18T17:13:24.944Z,9.50
2023-01-18T17:15:53.066Z,10.33
2023-01-18T17:18:25.532Z,11.20
2023-01-18T17:20:54.523Z,10.23
2023-01-18T17:23:21.865Z,11.97
2023-01-18T17:25:48.533Z,12.13
2023-01-18T17:28:17.830Z,10.63
2023-01-18T17:30:47.382Z,8.67
2023-01-18T17:33:19.682Z,10.20
2023-01-18T17:35:47.395Z,11.63
2023-01-18T17:38:23.270Z,10.17
2023-01-18T17:40:50.680Z,9.80
2023-01-18T17:43:28.450Z,9.30
2023-01-18T17:46:02.281Z,10.90
2023-01-18T17:48:29.593Z,8.90
2023-01-18T17:50:56.364Z,11.07
2023-01-18T17:53:23.139Z,10.43
2023-01-18T17:55:50.040Z,11.83
2023-01-18T17:58:16.756Z,12.10
2023-01-18T18:00:43.442Z,10.37
2023-01-18T18:03:10.372Z,8.73
2023-01-18T18:05:37.077Z,12.60
2023-01-18T18:08:03.981Z,14.17
2023-01-18T18:10:31.040Z,13.07
2023-01-18T18:12:57.899Z,12.73
2023-01-18T18:15:25.063Z,9.57
2023-01-18T18:17:51.736Z,13.43
2023-01-18T18:20:18.490Z,10.50
2023-01-18T18:22:45.216Z,13.33
2023-01-18T18:25:11.825Z,13.87
2023-01-18T18:27:47.280Z,15.40
2023-01-18T18:30:15.174Z,11.27
2023-01-18T18:32:41.929Z,11.77
2023-01-18T18:35:23.830Z,10.40
2023-01-18T18:37:53.855Z,11.83
2023-01-18T18:40:21.076Z,10.77
2023-01-18T18:43:00.836Z,16.77
2023-01-18T18:45:30.674Z,12.50
2023-01-18T18:47:57.417Z,11.17
2023-01-18T18:50:24.081Z,10.93
2023-01-18T18:52:50.736Z,11.90
2023-01-18T18:55:17.602Z,9.10
2023-01-18T18:57:44.314Z,13.77
2023-01-18T19:00:11.485Z,12.67
2023-01-18T19:02:38.253Z,10.33
2023-01-18T19:05:05.820Z,11.23
2023-01-18T19:07:34.726Z,14.70
2023-01-18T19:10:01.429Z,15.93
2023-01-18T19:12:28.034Z,10.23
2023-01-18T19:14:54.670Z,11.80
2023-01-18T19:17:30.464Z,13.97
2023-01-18T19:19:58.197Z,14.93
2023-01-18T19:22:25.203Z,11.50
2023-01-18T19:24:51.964Z,12.07
2023-01-18T19:27:18.678Z,13.03
2023-01-18T19:29:45.308Z,13.03
2023-01-18T19:32:12.009Z,13.93
2023-01-18T19:34:39.230Z,11.10
2023-01-18T19:37:06.382Z,10.67
2023-01-18T19:39:35.976Z,10.77
2023-01-18T19:42:02.835Z,11.30
2023-01-18T19:44:29.767Z,11.00
2023-01-18T19:46:56.961Z,12.73
2023-01-18T19:49:25.516Z,11.53
2023-01-18T19:51:53.297Z,12.43
2023-01-18T19:54:20.488Z,13.23
2023-01-18T19:56:47.160Z,10.37
2023-01-18T19:59:14.933Z,10.17
2023-01-18T20:01:41.948Z,10.50
2023-01-18T20:04:09.552Z,14.03
2023-01-18T20:06:40.763Z,10.80
2023-01-18T20:09:18.486Z,11.53
2023-01-18T20:11:46.056Z,12.03
2023-01-18T20:14:13.103Z,10.43
2023-01-18T20:16:39.908Z,12.60
2023-01-18T20:19:06.738Z,13.73
2023-01-18T20:21:33.438Z,9.93
2023-01-18T20:24:00.939Z,15.87
2023-01-18T20:26:36.796Z,11.90
2023-01-18T20:29:08.590Z,12.33
2023-01-18T20:31:36.787Z,14.60
2023-01-18T20:34:04.587Z,12.93
2023-01-18T20:36:32.224Z,11.20
2023-01-18T20:38:58.915Z,11.37
2023-01-18T20:41:25.542Z,11.30
2023-01-18T20:43:52.573Z,16.90
2023-01-18T20:46:19.531Z,10.40
2023-01-18T20:48:46.281Z,11.40
2023-01-18T20:51:13.057Z,13.37
2023-01-18T20:53:39.833Z,13.67
2023-01-18T20:56:23.299Z,16.10
2023-01-18T20:58:53.960Z,11.87
2023-01-18T21:01:20.993Z,12.40
2023-01-18T21:03:53.386Z,11.60
2023-01-18T21:06:20.130Z,13.13
2023-01-18T21:08:46.809Z,15.10
2023-01-18T21:11:14.935Z,12.47
2023-01-18T21:13:41.634Z,11.87
2023-01-18T21:16:08.393Z,15.23
2023-01-18T21:18:37.539Z,17.63
2023-01-18T21:21:04.528Z,15.67
2023-01-18T21:23:31.136Z,14.87
2023-01-18T21:26:01.471Z,15.20
2023-01-18T21:28:28.101Z,14.33
2023-01-18T21:30:56.324Z,13.37
2023-01-18T21:33:24.135Z,17.23
2023-01-18T21:35:52.793Z,15.67
2023-01-18T21:38:20.473Z,23.60
2023-01-18T21:40:47.109Z,16.47
2023-01-18T21:43:37.975Z,13.67
2023-01-18T21:46:07.520Z,15.83
2023-01-18T21:48:34.238Z,12.03
2023-01-18T21:51:21.482Z,11.37
2023-01-18T21:54:07.901Z,12.80
2023-01-18T21:56:36.868Z,16.07
2023-01-18T21:59:03.766Z,12.53
2023-01-18T22:01:39.010Z,10.43
2023-01-18T22:04:30.298Z,14.27
2023-01-18T22:07:00.674Z,15.43
2023-01-18T22:09:28.544Z,13.10
2023-01-18T22:11:58.490Z,12.80
2023-01-18T22:14:25.930Z,16.67
2023-01-18T22:16:53.248Z,13.23
2023-01-18T22:19:20.075Z,13.37
2023-01-18T22:21:47.595Z,13.13
2023-01-18T22:24:15.545Z,13.03
2023-01-18T22:26:42.756Z,13.50
2023-01-18T22:29:10.152Z,14.07
2023-01-18T22:31:37.582Z,15.77
2023-01-18T22:34:05.585Z,11.23
2023-01-18T22:36:33.384Z,13.27
2023-01-18T22:39:00.214Z,11.33
2023-01-18T22:41:29.005Z,15.27
2023-01-18T22:43:56.075Z,12.30
2023-01-18T22:46:23.860Z,10.43
2023-01-18T22:48:59.905Z,10.80
2023-01-18T22:51:27.842Z,12.00
2023-01-18T22:53:56.695Z,15.67
2023-01-18T22:56:27.442Z,9.87
2023-01-18T22:58:54.761Z,14.30
2023-01-18T23:01:28.153Z,12.37
2023-01-18T23:04:00.772Z,17.37
2023-01-18T23:06:28.884Z,12.77
2023-01-18T23:08:56.356Z,12.93
2023-01-18T23:11:29.108Z,12.23
2023-01-18T23:14:19.072Z,12.63
2023-01-18T23:17:04.836Z,15.00
2023-01-18T23:19:31.659Z,14.87
2023-01-18T23:21:58.383Z,12.67
2023-01-18T23:24:25.707Z,18.10
2023-01-18T23:26:52.690Z,15.50
2023-01-18T23:29:20.610Z,15.27
2023-01-18T23:31:48.942Z,20.40
2023-01-18T23:34:15.880Z,16.97
2023-01-18T23:36:42.823Z,13.93
2023-01-18T23:39:28.246Z,13.50
2023-01-18T23:42:13.605Z,16.13
2023-01-18T23:44:58.873Z,12.83
2023-01-18T23:47:44.200Z,12.27
2023-01-18T23:50:29.494Z,12.00
2023-01-18T23:53:14.900Z,11.40
2023-01-18T23:55:42.305Z,13.17
2023-01-18T23:58:09.022Z,16.33
